TAF and METAR

No METAR available for Santa Cruz/Graciosa Bay/Luova Airport

TAF for Santa Cruz/Graciosa Bay/Luova Airport

TAF AGGL 222310Z 2300/2324 14020KT 9999 -SHDZ FEW018 BKN030 PROB40 INTER 2300/2306 5000 SHRA BKN017 Q 1012 1010 1009 1011
Report created 23. mai 01:10

between 23. mai 02:00 - 23. mai 02:00

wind 20 knots from SE (140°) visibility > 10km light drizzle showers some clouds (~25% cover) at 1800 feet broken clouds (~75% cover) at 3000 feet
Santa Cruz/Graciosa Bay/Luova Airport in Solomon Islands at 24m

Latest 5 airports